createdAt,value
2018-01-30T00:00:06.618Z,87.50
2018-01-30T00:02:34.728Z,88.01
2018-01-30T00:05:02.846Z,88.17
2018-01-30T00:07:30.944Z,89.26
2018-01-30T00:09:59.065Z,88.07
2018-01-30T00:12:27.171Z,89.12
2018-01-30T00:14:55.270Z,88.71
2018-01-30T00:17:23.359Z,88.15
2018-01-30T00:19:51.450Z,88.28
2018-01-30T00:22:19.569Z,89.36
2018-01-30T00:24:47.659Z,89.66
2018-01-30T00:27:15.762Z,89.07
2018-01-30T00:29:59.021Z,88.80
2018-01-30T00:32:42.691Z,88.77
2018-01-30T00:35:10.849Z,88.85
2018-01-30T00:37:38.958Z,88.97
2018-01-30T00:40:07.068Z,89.66
2018-01-30T00:42:35.166Z,89.09
2018-01-30T00:45:18.851Z,88.82
2018-01-30T00:47:46.961Z,89.10
2018-01-30T00:50:15.055Z,89.17
2018-01-30T00:52:43.166Z,89.44
2018-01-30T00:55:11.263Z,89.13
2018-01-30T00:57:39.359Z,89.05
2018-01-30T01:00:07.462Z,88.92
2018-01-30T01:02:52.620Z,88.34
2018-01-30T01:05:20.736Z,88.63
2018-01-30T01:07:48.841Z,88.79
2018-01-30T01:10:16.957Z,88.43
2018-01-30T01:12:45.067Z,88.37
2018-01-30T01:15:13.170Z,88.94
2018-01-30T01:17:42.211Z,89.08
2018-01-30T01:20:10.320Z,89.33
2018-01-30T01:22:38.420Z,89.31
2018-01-30T01:25:06.563Z,89.61
2018-01-30T01:27:47.780Z,89.68
2018-01-30T01:30:15.882Z,89.51
2018-01-30T01:32:43.981Z,89.89
2018-01-30T01:35:12.084Z,89.10
2018-01-30T01:37:40.196Z,89.21
2018-01-30T01:40:08.304Z,89.36
2018-01-30T01:42:50.885Z,89.46
2018-01-30T01:45:18.974Z,89.07
2018-01-30T01:47:47.100Z,88.97
2018-01-30T01:50:15.196Z,89.41
2018-01-30T01:52:43.283Z,90.58
2018-01-30T01:55:11.396Z,90.22
2018-01-30T01:57:40.421Z,90.12
2018-01-30T02:00:09.538Z,90.21
2018-01-30T02:02:37.633Z,90.71
2018-01-30T02:05:05.776Z,90.10
2018-01-30T02:07:33.843Z,89.61
2018-01-30T02:10:01.963Z,89.31
2018-01-30T02:12:30.047Z,89.44
2018-01-30T02:14:58.134Z,89.39
2018-01-30T02:17:40.424Z,89.24
2018-01-30T02:20:09.571Z,89.00
2018-01-30T02:22:37.672Z,89.32
2018-01-30T02:25:05.762Z,88.63
2018-01-30T02:27:44.618Z,89.46
2018-01-30T02:30:12.729Z,89.35
2018-01-30T02:32:40.843Z,89.85
2018-01-30T02:35:08.944Z,89.93
2018-01-30T02:37:37.031Z,90.12
2018-01-30T02:40:05.150Z,90.23
2018-01-30T02:42:33.264Z,89.92
2018-01-30T02:45:01.390Z,90.52
2018-01-30T02:47:29.489Z,90.52
2018-01-30T02:50:06.608Z,90.18
2018-01-30T02:52:34.719Z,90.61
2018-01-30T02:55:02.826Z,90.20
2018-01-30T02:57:30.918Z,90.26
2018-01-30T02:59:59.022Z,89.99
2018-01-30T03:02:27.132Z,90.07
2018-01-30T03:04:55.230Z,89.57
2018-01-30T03:07:23.334Z,89.56
2018-01-30T03:09:51.426Z,89.33
2018-01-30T03:12:19.557Z,89.42
2018-01-30T03:14:47.680Z,89.96
2018-01-30T03:17:15.784Z,89.73
2018-01-30T03:19:43.891Z,90.27
2018-01-30T03:22:11.996Z,89.91
2018-01-30T03:24:40.098Z,90.05
2018-01-30T03:27:18.696Z,90.12
2018-01-30T03:30:00.698Z,89.50
2018-01-30T03:32:28.800Z,89.13
2018-01-30T03:34:56.920Z,89.25
2018-01-30T03:37:25.010Z,89.35
2018-01-30T03:39:53.128Z,89.94
2018-01-30T03:42:21.245Z,90.90
2018-01-30T03:44:49.326Z,90.99
2018-01-30T03:47:17.438Z,90.40
2018-01-30T03:49:45.549Z,90.88
2018-01-30T03:52:13.657Z,91.00
2018-01-30T03:54:41.759Z,90.78
2018-01-30T03:57:09.869Z,90.81
2018-01-30T03:59:53.446Z,90.83
2018-01-30T04:02:21.567Z,91.29
2018-01-30T04:04:49.670Z,91.27
2018-01-30T04:07:17.770Z,90.68
2018-01-30T04:09:45.884Z,90.23
2018-01-30T04:12:13.991Z,90.18
2018-01-30T04:14:42.096Z,90.59
2018-01-30T04:17:10.202Z,90.86
2018-01-30T04:19:38.316Z,90.98
2018-01-30T04:22:06.422Z,91.32
2018-01-30T04:24:34.514Z,91.36
2018-01-30T04:27:02.642Z,91.08
2018-01-30T04:29:45.242Z,90.44
2018-01-30T04:32:13.368Z,90.75
2018-01-30T04:34:41.476Z,90.49
2018-01-30T04:37:25.505Z,90.79
2018-01-30T04:39:53.612Z,90.92
2018-01-30T04:42:21.720Z,90.95
2018-01-30T04:44:49.832Z,91.15
2018-01-30T04:47:18.858Z,91.49
2018-01-30T04:49:46.991Z,91.57
2018-01-30T04:52:15.078Z,91.63
2018-01-30T04:54:43.200Z,91.48
2018-01-30T04:57:11.316Z,91.67
2018-01-30T04:59:39.409Z,91.84
2018-01-30T05:02:07.518Z,91.89
2018-01-30T05:04:35.614Z,91.35
2018-01-30T05:07:03.758Z,91.41
2018-01-30T05:09:31.861Z,90.97
2018-01-30T05:11:59.980Z,91.34
2018-01-30T05:14:37.924Z,91.58
2018-01-30T05:17:06.033Z,90.98
2018-01-30T05:19:34.291Z,90.65
2018-01-30T05:22:02.412Z,91.88
2018-01-30T05:24:31.521Z,91.46
2018-01-30T05:26:59.635Z,91.19
2018-01-30T05:29:38.293Z,91.19
2018-01-30T05:32:06.404Z,90.83
2018-01-30T05:34:34.519Z,91.02
2018-01-30T05:37:02.626Z,91.04
2018-01-30T05:39:30.736Z,91.08
2018-01-30T05:41:58.841Z,91.19
2018-01-30T05:44:39.675Z,91.83
2018-01-30T05:47:07.774Z,91.85
2018-01-30T05:49:35.882Z,91.11
2018-01-30T05:52:03.998Z,93.67
2018-01-30T05:54:32.094Z,88.70
2018-01-30T05:57:00.213Z,89.51
2018-01-30T05:59:28.329Z,90.56
2018-01-30T06:01:56.442Z,90.69
2018-01-30T06:04:24.570Z,90.42
2018-01-30T06:06:52.676Z,90.64
2018-01-30T06:09:20.904Z,91.10
2018-01-30T06:11:49.016Z,91.09
2018-01-30T06:14:17.126Z,90.70
2018-01-30T06:16:45.234Z,90.92
2018-01-30T06:19:13.345Z,91.73
2018-01-30T06:21:41.446Z,91.39
2018-01-30T06:24:26.627Z,91.59
2018-01-30T06:26:54.726Z,97.45
2018-01-30T06:29:33.984Z,89.12
2018-01-30T06:32:02.100Z,90.87
2018-01-30T06:34:30.198Z,90.69
2018-01-30T06:36:58.692Z,88.64
2018-01-30T06:39:27.744Z,89.10
2018-01-30T06:41:55.855Z,90.41
2018-01-30T06:44:24.905Z,90.80
2018-01-30T06:46:53.091Z,91.06
2018-01-30T06:49:21.138Z,92.35
2018-01-30T06:51:49.260Z,91.22
2018-01-30T06:54:17.371Z,90.50
2018-01-30T06:56:45.507Z,91.24
2018-01-30T06:59:25.527Z,91.42
2018-01-30T07:01:53.625Z,91.74
2018-01-30T07:04:21.755Z,92.36
2018-01-30T07:06:49.874Z,91.90
2018-01-30T07:09:17.979Z,92.14
2018-01-30T07:11:46.122Z,91.47
2018-01-30T07:14:14.226Z,91.64
2018-01-30T07:16:42.327Z,91.38
2018-01-30T07:19:10.454Z,91.37
2018-01-30T07:21:38.602Z,91.38
2018-01-30T07:24:06.712Z,90.79
2018-01-30T07:26:34.831Z,90.96
2018-01-30T07:29:17.369Z,91.35
2018-01-30T07:31:45.501Z,91.03
2018-01-30T07:34:14.598Z,91.35
2018-01-30T07:36:58.604Z,91.18
2018-01-30T07:39:26.736Z,91.73
2018-01-30T07:41:54.840Z,91.40
2018-01-30T07:44:22.981Z,91.46
2018-01-30T07:46:51.075Z,91.36
2018-01-30T07:49:19.222Z,91.99
2018-01-30T07:51:47.343Z,92.34
2018-01-30T07:54:15.464Z,91.55
2018-01-30T07:56:43.559Z,92.10
2018-01-30T07:59:11.682Z,91.99
2018-01-30T08:01:39.804Z,91.21
2018-01-30T08:04:07.899Z,91.72
2018-01-30T08:06:36.047Z,91.41
2018-01-30T08:09:04.174Z,91.25
2018-01-30T08:11:32.428Z,90.87
2018-01-30T08:14:12.094Z,91.28
2018-01-30T08:16:40.219Z,91.15
2018-01-30T08:19:08.322Z,91.25
2018-01-30T08:21:36.426Z,91.16
2018-01-30T08:24:04.553Z,90.91
2018-01-30T08:26:32.676Z,90.61
2018-01-30T08:29:12.786Z,91.31
2018-01-30T08:31:40.900Z,91.43
2018-01-30T08:34:09.012Z,91.24
2018-01-30T08:36:37.120Z,92.58
2018-01-30T08:39:05.245Z,92.35
2018-01-30T08:41:33.352Z,92.32
2018-01-30T08:44:01.461Z,91.96
2018-01-30T08:46:29.570Z,91.55
2018-01-30T08:48:57.678Z,91.91
2018-01-30T08:51:35.862Z,92.17
2018-01-30T08:54:04.917Z,91.88
2018-01-30T08:56:33.050Z,91.95
2018-01-30T08:59:01.152Z,91.61
2018-01-30T09:01:43.114Z,92.08
2018-01-30T09:04:25.977Z,91.97
2018-01-30T09:07:08.078Z,91.75
2018-01-30T09:09:51.392Z,92.02
2018-01-30T09:12:19.521Z,92.11
2018-01-30T09:14:58.769Z,92.71
2018-01-30T09:17:41.132Z,92.12
2018-01-30T09:20:09.251Z,91.80
2018-01-30T09:22:49.400Z,91.37
2018-01-30T09:25:17.516Z,92.01
2018-01-30T09:27:56.661Z,92.57
2018-01-30T09:30:24.776Z,91.95
2018-01-30T09:33:13.247Z,92.00
2018-01-30T09:35:56.537Z,91.58
2018-01-30T09:38:24.637Z,92.75
2018-01-30T09:40:52.734Z,91.21
2018-01-30T09:43:20.877Z,91.01
2018-01-30T09:45:48.996Z,91.22
2018-01-30T09:48:17.116Z,92.11
2018-01-30T09:50:45.240Z,91.72
2018-01-30T09:53:13.350Z,91.32
2018-01-30T09:55:41.466Z,91.85
2018-01-30T09:58:09.579Z,91.66
2018-01-30T10:00:37.707Z,91.24
2018-01-30T10:03:16.555Z,91.27
2018-01-30T10:05:44.690Z,90.81
2018-01-30T10:08:12.802Z,90.41
2018-01-30T10:10:40.916Z,91.25
2018-01-30T10:13:09.034Z,91.17
2018-01-30T10:15:37.126Z,91.28
2018-01-30T10:18:05.274Z,91.30
2018-01-30T10:20:33.378Z,91.76
2018-01-30T10:23:01.496Z,91.55
2018-01-30T10:25:29.598Z,90.56
2018-01-30T10:28:11.654Z,91.66
2018-01-30T10:30:39.765Z,91.19
2018-01-30T10:33:07.873Z,91.30
2018-01-30T10:35:52.484Z,91.58
2018-01-30T10:38:20.603Z,91.55
2018-01-30T10:40:48.722Z,91.57
2018-01-30T10:43:16.828Z,92.07
2018-01-30T10:45:44.926Z,92.03
2018-01-30T10:48:13.063Z,91.36
2018-01-30T10:50:41.204Z,91.07
2018-01-30T10:53:09.317Z,91.48
2018-01-30T10:55:37.427Z,90.98
2018-01-30T10:58:05.523Z,91.15
2018-01-30T11:00:33.660Z,90.81
2018-01-30T11:03:01.757Z,90.59
2018-01-30T11:05:29.874Z,90.95
2018-01-30T11:07:57.993Z,90.25
2018-01-30T11:10:41.520Z,89.95
2018-01-30T11:13:09.614Z,90.05
2018-01-30T11:15:37.816Z,89.90
2018-01-30T11:18:05.923Z,90.49
2018-01-30T11:20:34.034Z,90.24
2018-01-30T11:23:02.161Z,90.17
2018-01-30T11:25:30.268Z,89.83
2018-01-30T11:28:14.884Z,89.50
2018-01-30T11:30:42.992Z,88.36
2018-01-30T11:33:12.034Z,88.94
2018-01-30T11:35:40.154Z,89.27
2018-01-30T11:38:08.282Z,89.30
2018-01-30T11:40:36.385Z,88.66
2018-01-30T11:43:16.263Z,88.78
2018-01-30T11:45:44.364Z,87.99
2018-01-30T11:48:12.472Z,88.45
2018-01-30T11:50:40.592Z,87.57
2018-01-30T11:53:08.700Z,87.59
2018-01-30T11:55:36.835Z,87.25
2018-01-30T11:58:04.932Z,87.25
2018-01-30T12:00:33.034Z,86.56
2018-01-30T12:03:01.152Z,86.97
2018-01-30T12:05:29.288Z,86.38
2018-01-30T12:07:57.411Z,85.79
2018-01-30T12:10:25.542Z,86.67
2018-01-30T12:13:07.607Z,86.39
2018-01-30T12:15:35.718Z,87.16
2018-01-30T12:18:03.836Z,85.64
2018-01-30T12:20:31.965Z,85.69
2018-01-30T12:23:00.090Z,83.28
2018-01-30T12:25:28.195Z,83.22
2018-01-30T12:28:08.611Z,83.38
2018-01-30T12:30:36.859Z,82.52
2018-01-30T12:33:05.052Z,83.29
2018-01-30T12:35:33.361Z,82.88
2018-01-30T12:38:01.614Z,84.59
2018-01-30T12:40:29.724Z,82.24
2018-01-30T12:42:57.830Z,81.83
2018-01-30T12:45:42.504Z,82.74
2018-01-30T12:48:10.602Z,83.18
2018-01-30T12:50:38.739Z,81.75
2018-01-30T12:53:06.872Z,81.52
2018-01-30T12:55:35.004Z,81.23
2018-01-30T12:58:03.124Z,81.10
2018-01-30T13:00:31.222Z,81.62
2018-01-30T13:02:59.423Z,82.99
2018-01-30T13:05:40.035Z,81.33
2018-01-30T13:08:08.185Z,80.78
2018-01-30T13:10:36.282Z,80.87
2018-01-30T13:13:04.405Z,81.04
2018-01-30T13:15:32.538Z,80.52
2018-01-30T13:18:06.165Z,81.43
2018-01-30T13:20:34.272Z,79.62
2018-01-30T13:23:02.401Z,79.84
2018-01-30T13:25:31.435Z,79.99
2018-01-30T13:28:11.373Z,78.94
2018-01-30T13:30:39.488Z,79.02
2018-01-30T13:33:07.615Z,79.12
2018-01-30T13:35:35.725Z,78.86
2018-01-30T13:38:03.856Z,78.27
2018-01-30T13:40:31.966Z,78.77
2018-01-30T13:43:00.090Z,77.88
2018-01-30T13:45:28.236Z,77.80
2018-01-30T13:47:56.338Z,77.41
2018-01-30T13:50:24.500Z,76.48
2018-01-30T13:52:52.627Z,76.75
2018-01-30T13:55:20.752Z,77.26
2018-01-30T13:58:03.639Z,75.90
2018-01-30T14:00:31.734Z,76.58
2018-01-30T14:03:00.796Z,76.29
2018-01-30T14:05:28.929Z,76.98
2018-01-30T14:07:57.047Z,77.94
2018-01-30T14:10:25.161Z,77.42
2018-01-30T14:12:53.290Z,76.75
2018-01-30T14:15:21.406Z,76.36
2018-01-30T14:17:49.572Z,76.41
2018-01-30T14:20:17.689Z,76.34
2018-01-30T14:22:45.802Z,76.11
2018-01-30T14:25:13.922Z,76.28
2018-01-30T14:27:54.985Z,75.01
2018-01-30T14:30:23.095Z,76.59
2018-01-30T14:32:51.216Z,75.81
2018-01-30T14:35:36.500Z,76.40
2018-01-30T14:38:04.654Z,76.03
2018-01-30T14:40:32.888Z,75.67
2018-01-30T14:43:00.998Z,74.96
2018-01-30T14:45:30.077Z,75.61
2018-01-30T14:47:58.189Z,76.25
2018-01-30T14:50:29.773Z,76.15
2018-01-30T14:52:57.910Z,76.45
2018-01-30T14:55:26.040Z,76.06
2018-01-30T14:57:54.153Z,75.96
2018-01-30T15:00:22.279Z,75.75
2018-01-30T15:02:50.403Z,75.62
2018-01-30T15:05:18.517Z,75.75
2018-01-30T15:08:00.875Z,75.66
2018-01-30T15:10:28.993Z,76.15
2018-01-30T15:12:57.103Z,75.86
2018-01-30T15:15:25.210Z,75.43
2018-01-30T15:17:53.338Z,75.77
2018-01-30T15:20:21.452Z,76.04
2018-01-30T15:22:49.591Z,76.05
2018-01-30T15:25:17.760Z,76.89
2018-01-30T15:27:58.604Z,77.41
2018-01-30T15:30:26.715Z,77.16
2018-01-30T15:32:54.826Z,77.17
2018-01-30T15:35:22.933Z,77.40
2018-01-30T15:37:51.064Z,77.57
2018-01-30T15:40:35.413Z,78.14
2018-01-30T15:43:03.526Z,78.51
2018-01-30T15:45:41.863Z,77.89
2018-01-30T15:48:09.954Z,78.42
2018-01-30T15:50:38.054Z,78.85
2018-01-30T15:53:06.186Z,79.03
2018-01-30T15:55:34.295Z,78.76
2018-01-30T15:58:18.459Z,78.44
2018-01-30T16:00:46.582Z,79.25
2018-01-30T16:03:14.688Z,79.53
2018-01-30T16:05:42.802Z,78.74
2018-01-30T16:08:10.906Z,79.19
2018-01-30T16:10:39.029Z,79.04
2018-01-30T16:13:19.696Z,79.08
2018-01-30T16:15:47.814Z,79.39
2018-01-30T16:18:17.834Z,79.66
2018-01-30T16:20:45.945Z,79.41
2018-01-30T16:23:14.099Z,79.51
2018-01-30T16:25:42.202Z,80.62
2018-01-30T16:28:20.887Z,80.70
2018-01-30T16:30:49.007Z,80.94
2018-01-30T16:33:17.110Z,81.23
2018-01-30T16:35:46.171Z,81.93
2018-01-30T16:38:14.281Z,81.19
2018-01-30T16:40:43.343Z,81.21
2018-01-30T16:43:11.443Z,81.97
2018-01-30T16:45:39.568Z,82.01
2018-01-30T16:48:18.690Z,82.21
2018-01-30T16:50:46.810Z,82.65
2018-01-30T16:53:14.928Z,82.80
2018-01-30T16:55:43.075Z,82.88
2018-01-30T16:58:12.138Z,82.70
2018-01-30T17:00:40.225Z,82.80
2018-01-30T17:03:08.342Z,83.28
2018-01-30T17:05:36.449Z,83.55
2018-01-30T17:08:26.125Z,83.53
2018-01-30T17:10:54.236Z,83.25
2018-01-30T17:13:23.320Z,83.51
2018-01-30T17:15:51.428Z,83.98
2018-01-30T17:18:19.547Z,84.25
2018-01-30T17:20:47.662Z,84.55
2018-01-30T17:23:15.801Z,84.72
2018-01-30T17:25:43.902Z,85.01
2018-01-30T17:28:24.342Z,84.47
2018-01-30T17:30:52.443Z,84.36
2018-01-30T17:33:20.538Z,84.81
2018-01-30T17:35:48.672Z,84.68
2018-01-30T17:38:16.792Z,84.78
2018-01-30T17:40:44.894Z,84.19
2018-01-30T17:46:09.829Z,84.72
2018-01-30T17:48:58.789Z,85.20
2018-01-30T17:51:37.312Z,84.82
2018-01-30T17:54:05.432Z,84.73
2018-01-30T17:56:33.549Z,84.56
2018-01-30T17:59:01.663Z,84.98
2018-01-30T18:01:29.767Z,84.49
2018-01-30T18:03:57.889Z,84.55
2018-01-30T18:06:26.013Z,84.31
2018-01-30T18:08:54.110Z,84.64
2018-01-30T18:11:22.222Z,85.16
2018-01-30T18:16:53.592Z,85.07
2018-01-30T18:22:31.432Z,85.35
2018-01-30T18:25:15.062Z,85.64
2018-01-30T18:27:43.189Z,85.54
2018-01-30T18:30:23.200Z,85.50
2018-01-30T18:33:09.496Z,85.78
2018-01-30T18:35:50.382Z,85.86
2018-01-30T18:41:19.488Z,85.50
2018-01-30T18:44:01.556Z,85.63
2018-01-30T18:46:44.098Z,85.71
2018-01-30T18:49:12.228Z,85.73
2018-01-30T18:51:41.260Z,85.82
2018-01-30T18:54:09.359Z,85.77
2018-01-30T18:56:37.471Z,85.86
2018-01-30T18:59:21.586Z,85.85
2018-01-30T19:01:49.731Z,86.54
2018-01-30T19:04:17.836Z,86.83
2018-01-30T19:06:45.950Z,86.47
2018-01-30T19:09:14.080Z,86.26
2018-01-30T19:11:42.174Z,86.32
2018-01-30T19:14:10.302Z,86.46
2018-01-30T19:16:38.403Z,86.50
2018-01-30T19:19:07.465Z,86.77
2018-01-30T19:21:35.584Z,86.82
2018-01-30T19:24:03.682Z,87.12
2018-01-30T19:26:31.810Z,87.18
2018-01-30T19:29:13.348Z,87.02
2018-01-30T19:31:41.532Z,86.56
2018-01-30T19:34:20.920Z,86.73
2018-01-30T19:36:49.996Z,86.65
2018-01-30T19:39:18.154Z,86.34
2018-01-30T19:41:46.274Z,86.16
2018-01-30T19:44:14.404Z,86.24
2018-01-30T19:46:42.494Z,86.30
2018-01-30T19:49:10.606Z,86.74
2018-01-30T19:51:54.880Z,87.01
2018-01-30T19:54:39.410Z,87.48
2018-01-30T19:57:22.762Z,86.99
2018-01-30T19:59:50.894Z,87.15
2018-01-30T20:02:30.049Z,87.22
2018-01-30T20:04:58.166Z,87.23
2018-01-30T20:07:27.255Z,87.20
2018-01-30T20:10:11.169Z,86.82
2018-01-30T20:12:39.274Z,87.26
2018-01-30T20:15:07.388Z,87.53
2018-01-30T20:17:37.304Z,87.42
2018-01-30T20:20:05.432Z,87.57
2018-01-30T20:22:33.557Z,87.79
2018-01-30T20:25:01.677Z,86.86
2018-01-30T20:27:46.893Z,87.00
2018-01-30T20:30:24.094Z,86.72
2018-01-30T20:33:05.805Z,86.88
2018-01-30T20:38:41.485Z,87.03
2018-01-30T20:41:24.810Z,86.99
2018-01-30T20:44:08.205Z,86.41
2018-01-30T20:46:36.485Z,87.17
2018-01-30T20:49:14.756Z,87.32
2018-01-30T20:51:56.384Z,87.18
2018-01-30T20:54:24.561Z,86.94
2018-01-30T20:57:03.283Z,86.78
2018-01-30T20:59:31.437Z,86.64
2018-01-30T21:02:09.694Z,86.43
2018-01-30T21:04:51.993Z,86.42
2018-01-30T21:07:34.462Z,86.11
2018-01-30T21:10:17.441Z,85.81
2018-01-30T21:13:00.292Z,86.03
2018-01-30T21:15:42.473Z,86.19
2018-01-30T21:18:25.594Z,86.44
2018-01-30T21:21:07.943Z,86.26
2018-01-30T21:23:36.041Z,86.13
2018-01-30T21:26:15.198Z,86.22
2018-01-30T21:28:57.664Z,85.98
2018-01-30T21:31:41.370Z,85.42
2018-01-30T21:34:09.467Z,85.44
2018-01-30T21:36:49.315Z,85.56
2018-01-30T21:39:17.422Z,85.42
2018-01-30T21:42:04.117Z,85.51
2018-01-30T21:44:32.228Z,85.17
2018-01-30T21:47:11.376Z,85.70
2018-01-30T21:49:53.060Z,85.52
2018-01-30T21:52:35.566Z,85.62
2018-01-30T21:55:18.695Z,85.03
2018-01-30T21:57:46.806Z,84.66
2018-01-30T22:00:25.637Z,84.43
2018-01-30T22:02:53.756Z,84.75
2018-01-30T22:05:32.205Z,85.01
2018-01-30T22:08:14.679Z,83.90
2018-01-30T22:10:57.327Z,84.39
2018-01-30T22:13:40.133Z,84.11
2018-01-30T22:16:08.290Z,84.35
2018-01-30T22:18:47.154Z,84.14
2018-01-30T22:21:15.312Z,83.95
2018-01-30T22:23:44.380Z,84.16
2018-01-30T22:26:26.061Z,84.60
2018-01-30T22:29:08.408Z,84.38
2018-01-30T22:31:45.175Z,84.31
2018-01-30T22:34:13.261Z,84.32
2018-01-30T22:36:51.975Z,84.40
2018-01-30T22:39:34.218Z,84.15
2018-01-30T22:42:16.379Z,84.25
2018-01-30T22:44:58.807Z,84.10
